Time;durP1;ratioP1;P1;durP2;ratioP2;P2;SDS_P1;SDS_P2;PMS_P1;PMS_P2;Temp;Humidity;BMP_temperature;BMP_pressure;BME280_temperature;BME280_humidity;BME280_pressure;Samples;Min_cycle;Max_cycle;Signal;HPM_P1;HPM_P2
2022/10/25 00:01:28;;;;;;;0.93;0.47;;;13.10;99.90;;;;;;5029913;28;20040;-72
2022/10/25 00:03:54;;;;;;;7.15;1.60;;;13.10;99.90;;;;;;5014030;28;20116;-72
2022/10/25 00:06:20;;;;;;;5.35;1.48;;;13.10;99.90;;;;;;5013539;28;20041;-72
2022/10/25 00:08:47;;;;;;;1.15;0.75;;;13.00;99.90;;;;;;5029427;28;20040;-72
2022/10/25 00:11:19;;;;;;;0.73;0.55;;;13.00;99.90;;;;;;5029789;28;20038;-72
2022/10/25 00:13:47;;;;;;;1.45;0.65;;;12.90;99.90;;;;;;5013740;28;20037;-72
2022/10/25 00:16:21;;;;;;;2.95;0.93;;;12.90;99.90;;;;;;5029090;28;20084;-72
2022/10/25 00:18:47;;;;;;;2.25;0.63;;;12.90;99.90;;;;;;5029466;28;20037;-72
2022/10/25 00:21:12;;;;;;;1.17;0.73;;;12.90;99.90;;;;;;5029530;28;20404;-72
2022/10/25 00:23:38;;;;;;;2.83;0.60;;;12.90;99.90;;;;;;5028847;28;20036;-72
2022/10/25 00:26:07;;;;;;;4.30;0.75;;;12.90;99.90;;;;;;5029442;28;20034;-72
2022/10/25 00:28:33;;;;;;;5.80;1.10;;;12.90;99.90;;;;;;5029080;28;20113;-72
2022/10/25 00:31:09;;;;;;;1.17;0.63;;;12.90;99.90;;;;;;5029152;28;20468;-72
2022/10/25 00:33:36;;;;;;;2.10;1.00;;;12.90;99.90;;;;;;5028283;28;20112;-72
2022/10/25 00:36:07;;;;;;;6.78;1.55;;;12.90;99.90;;;;;;5014068;28;20026;-73
2022/10/25 00:38:34;;;;;;;1.20;0.80;;;12.90;99.90;;;;;;5028939;28;20033;-72
2022/10/25 00:41:00;;;;;;;3.47;1.25;;;12.90;99.90;;;;;;5013689;28;20030;-73
2022/10/25 00:43:37;;;;;;;0.73;0.50;;;12.90;99.90;;;;;;5028670;28;20026;-72
2022/10/25 00:46:19;;;;;;;1.27;0.80;;;12.90;99.90;;;;;;5013945;28;20113;-72
2022/10/25 00:48:56;;;;;;;1.55;0.80;;;12.80;99.90;;;;;;5013966;28;20113;-73
2022/10/25 00:51:35;;;;;;;1.08;0.57;;;12.80;99.90;;;;;;5028474;28;20084;-73
2022/10/25 00:54:01;;;;;;;1.75;1.00;;;12.70;99.90;;;;;;5013030;28;20482;-72
2022/10/25 00:56:32;;;;;;;1.23;0.80;;;12.70;99.90;;;;;;5013381;28;20026;-72
2022/10/25 00:59:03;;;;;;;1.83;0.98;;;12.70;99.90;;;;;;5028154;28;20037;-72
2022/10/25 01:01:30;;;;;;;1.03;0.87;;;12.60;99.90;;;;;;5013468;28;20382;-73
2022/10/25 01:04:00;;;;;;;2.50;0.93;;;12.70;99.90;;;;;;5027030;28;20034;-72
2022/10/25 01:06:41;;;;;;;0.55;0.45;;;12.60;99.90;;;;;;5002608;28;20038;-72
2022/10/25 01:09:12;;;;;;;3.58;0.85;;;12.60;99.90;;;;;;5003939;28;20193;-73
2022/10/25 01:11:38;;;;;;;1.90;0.82;;;12.60;99.90;;;;;;5002566;28;20116;-73
2022/10/25 01:14:06;;;;;;;1.02;0.68;;;12.60;99.90;;;;;;5012841;28;20117;-73
2022/10/25 01:16:47;;;;;;;3.25;0.68;;;12.60;99.90;;;;;;4996095;28;20018;-73
2022/10/25 01:19:41;;;;;;;1.55;0.77;;;12.60;99.90;;;;;;4992383;28;20034;-72
2022/10/25 01:22:33;;;;;;;0.85;0.55;;;12.50;99.90;;;;;;4991957;28;20034;-73
2022/10/25 01:25:50;;;;;;;1.27;0.80;;;12.40;99.90;;;;;;5009661;28;20034;-72
2022/10/25 01:28:59;;;;;;;3.40;1.05;;;12.40;99.90;;;;;;5011134;28;20157;-73
2022/10/25 01:31:52;;;;;;;0.95;0.85;;;12.30;99.90;;;;;;5011852;28;20030;-73
2022/10/25 01:34:33;;;;;;;1.95;1.35;;;12.30;99.90;;;;;;5012147;28;20124;-72
2022/10/25 01:37:28;;;;;;;2.17;0.90;;;12.30;99.90;;;;;;5011480;28;20091;-73
2022/10/25 01:40:23;;;;;;;3.40;0.90;;;12.30;99.90;;;;;;5011536;28;20490;-73
2022/10/25 01:43:40;;;;;;;4.53;1.02;;;12.30;99.90;;;;;;4991132;28;20038;-73
2022/10/25 01:46:39;;;;;;;1.80;0.80;;;12.30;99.90;;;;;;4992019;28;20557;-73
2022/10/25 01:49:11;;;;;;;6.93;1.55;;;12.20;99.90;;;;;;4991496;28;20034;-73
2022/10/25 01:51:37;;;;;;;1.92;1.27;;;12.20;99.90;;;;;;4991736;28;20512;-73
2022/10/25 01:54:20;;;;;;;4.35;1.85;;;12.20;99.90;;;;;;4991877;28;20026;-73
2022/10/25 01:57:34;;;;;;;2.92;0.60;;;12.20;99.90;;;;;;4991720;28;20393;-72
2022/10/25 02:00:11;;;;;;;3.20;0.95;;;12.30;99.90;;;;;;4991977;28;20037;-72
2022/10/25 02:03:01;;;;;;;1.17;0.73;;;12.30;99.90;;;;;;4992097;28;20034;-73
2022/10/25 02:05:50;;;;;;;2.90;0.88;;;12.30;99.90;;;;;;4992711;28;20034;-72
2022/10/25 02:08:45;;;;;;;3.15;0.82;;;12.30;99.90;;;;;;4990997;28;20394;-73
2022/10/25 02:11:26;;;;;;;0.82;0.40;;;12.30;99.90;;;;;;4991411;28;20113;-73
2022/10/25 02:14:36;;;;;;;1.38;0.63;;;12.40;99.90;;;;;;4990459;28;20030;-73
2022/10/25 02:17:17;;;;;;;0.60;0.40;;;12.30;99.90;;;;;;4991324;28;20513;-73
2022/10/25 02:19:51;;;;;;;0.55;0.47;;;12.30;99.90;;;;;;4991274;28;20074;-73
2022/10/25 02:22:20;;;;;;;8.63;1.17;;;12.40;99.90;;;;;;4990295;28;20065;-73
2022/10/25 02:24:49;;;;;;;5.93;0.77;;;12.30;99.90;;;;;;4992094;28;20120;-73
2022/10/25 02:27:17;;;;;;;0.88;0.45;;;12.30;99.90;;;;;;4990891;28;20520;-73
2022/10/25 02:29:45;;;;;;;2.28;0.82;;;12.30;99.90;;;;;;4990786;28;20092;-73
2022/10/25 02:32:11;;;;;;;5.32;0.50;;;12.30;99.90;;;;;;4990675;28;20033;-72
2022/10/25 02:34:39;;;;;;;1.05;0.50;;;12.30;99.90;;;;;;4990525;28;20030;-73
2022/10/25 02:37:05;;;;;;;0.90;0.65;;;12.30;99.90;;;;;;4991102;28;20387;-72
2022/10/25 02:39:32;;;;;;;1.23;0.70;;;12.30;99.90;;;;;;4990574;28;20034;-72
2022/10/25 02:45:38;;;;;;;1.40;1.00;;;12.40;99.90;;;;;;4991638;28;20560;-72
2022/10/25 02:48:04;;;;;;;2.45;0.60;;;12.30;99.90;;;;;;4991780;28;20042;-73
2022/10/25 02:50:30;;;;;;;6.85;1.17;;;12.30;99.90;;;;;;4991455;28;20034;-73
2022/10/25 02:52:55;;;;;;;4.40;1.00;;;12.20;99.90;;;;;;4991170;28;20026;-72
2022/10/25 02:55:21;;;;;;;8.43;1.13;;;12.20;99.90;;;;;;4991905;28;20518;-72
2022/10/25 02:57:47;;;;;;;6.80;0.80;;;12.10;99.90;;;;;;4991775;28;20030;-73
2022/10/25 03:00:13;;;;;;;2.15;1.00;;;12.00;99.90;;;;;;5004637;28;20042;-73
2022/10/25 03:02:39;;;;;;;1.63;0.90;;;12.00;99.90;;;;;;5004501;28;20022;-73
2022/10/25 03:05:05;;;;;;;1.95;0.70;;;12.00;99.90;;;;;;5007997;28;20037;-73
2022/10/25 03:07:31;;;;;;;10.88;1.95;;;12.00;99.90;;;;;;5002904;28;20679;-73
2022/10/25 03:09:56;;;;;;;0.30;0.20;;;11.90;99.90;;;;;;5009331;28;20116;-73
2022/10/25 03:12:22;;;;;;;0.68;0.60;;;12.00;99.90;;;;;;4994045;28;20033;-73
2022/10/25 03:14:48;;;;;;;1.50;0.50;;;12.00;99.90;;;;;;4994785;28;20113;-73
2022/10/25 03:17:13;;;;;;;0.93;0.77;;;12.00;99.90;;;;;;5009718;28;20397;-73
2022/10/25 03:19:39;;;;;;;7.38;0.73;;;12.00;99.90;;;;;;5004333;28;20030;-73
2022/10/25 03:22:04;;;;;;;0.68;0.35;;;12.00;99.90;;;;;;4991573;28;20029;-73
2022/10/25 03:24:30;;;;;;;1.25;0.80;;;12.00;99.90;;;;;;4990778;28;20062;-73
2022/10/25 03:26:56;;;;;;;0.75;0.43;;;12.00;99.90;;;;;;4991575;28;20030;-73
2022/10/25 03:29:21;;;;;;;1.70;0.63;;;12.00;99.90;;;;;;4991271;28;20106;-73
2022/10/25 03:31:48;;;;;;;0.55;0.52;;;12.00;99.90;;;;;;4990241;28;20693;-73
2022/10/25 03:34:13;;;;;;;0.90;0.52;;;12.00;99.90;;;;;;4992904;28;20115;-73
2022/10/25 03:36:39;;;;;;;5.13;0.68;;;12.00;99.90;;;;;;5000965;28;20104;-73
2022/10/25 03:39:04;;;;;;;0.68;0.50;;;12.00;99.90;;;;;;5014555;28;20074;-73
2022/10/25 03:41:30;;;;;;;1.67;0.85;;;12.00;99.90;;;;;;5014731;28;20041;-72
2022/10/25 03:43:56;;;;;;;0.63;0.40;;;12.00;99.90;;;;;;5013909;28;20041;-73
2022/10/25 03:46:21;;;;;;;3.42;0.77;;;12.00;99.90;;;;;;5014792;28;20537;-73
2022/10/25 03:48:47;;;;;;;2.38;0.80;;;11.90;99.90;;;;;;5014378;28;20034;-73
2022/10/25 03:51:13;;;;;;;2.55;1.05;;;11.90;99.90;;;;;;5014584;28;20034;-72
2022/10/25 03:53:38;;;;;;;0.85;0.57;;;11.80;99.90;;;;;;5013776;28;20096;-73
2022/10/25 03:56:05;;;;;;;2.72;1.20;;;11.80;99.90;;;;;;5014606;28;20022;-73
2022/10/25 03:58:30;;;;;;;7.65;1.73;;;11.70;99.90;;;;;;5013382;28;20026;-72
2022/10/25 04:00:56;;;;;;;4.32;0.98;;;11.70;99.90;;;;;;5014371;28;20048;-73
2022/10/25 04:03:21;;;;;;;1.75;0.98;;;11.70;99.90;;;;;;5001982;28;20038;-72
2022/10/25 04:05:47;;;;;;;2.28;1.10;;;11.60;99.90;;;;;;5014181;28;20060;-72
2022/10/25 04:08:13;;;;;;;1.38;0.80;;;11.60;99.90;;;;;;5009763;28;20246;-73
2022/10/25 04:10:38;;;;;;;1.33;0.45;;;11.60;99.90;;;;;;5004785;28;20037;-72
2022/10/25 04:13:04;;;;;;;7.82;1.05;;;11.60;99.90;;;;;;5003377;28;20098;-72
2022/10/25 04:15:30;;;;;;;2.17;0.65;;;11.60;99.90;;;;;;4997969;28;20069;-72
2022/10/25 04:17:55;;;;;;;3.67;0.77;;;11.50;99.90;;;;;;4993304;28;20066;-72
2022/10/25 04:20:21;;;;;;;3.08;1.13;;;11.50;99.90;;;;;;5012480;28;20030;-72
2022/10/25 04:22:56;;;;;;;7.53;1.50;;;11.50;99.90;;;;;;5013216;28;20521;-72
2022/10/25 04:25:27;;;;;;;3.22;1.20;;;11.50;99.90;;;;;;5008791;28;20053;-71
2022/10/25 04:27:53;;;;;;;0.93;0.50;;;11.50;99.90;;;;;;5013652;28;20038;-72
2022/10/25 04:30:19;;;;;;;0.95;0.52;;;11.50;99.90;;;;;;5013492;28;20054;-71
2022/10/25 04:32:45;;;;;;;3.80;1.00;;;11.60;99.90;;;;;;5005297;28;20031;-71
2022/10/25 04:35:11;;;;;;;1.13;0.77;;;11.60;99.90;;;;;;5017326;28;20030;-72
2022/10/25 04:37:37;;;;;;;5.90;0.65;;;11.50;99.90;;;;;;5003222;28;20068;-73
2022/10/25 04:40:04;;;;;;;6.40;1.00;;;11.50;99.90;;;;;;5006872;28;20125;-73
2022/10/25 04:42:33;;;;;;;8.35;0.98;;;11.60;99.90;;;;;;5015610;28;20034;-73
2022/10/25 04:45:00;;;;;;;0.43;0.43;;;11.60;99.90;;;;;;5001074;28;20034;-72
2022/10/25 04:47:28;;;;;;;0.85;0.70;;;11.60;99.90;;;;;;5002298;28;20045;-72
2022/10/25 04:49:54;;;;;;;3.63;1.13;;;11.50;99.90;;;;;;5002155;28;20093;-73
2022/10/25 04:52:20;;;;;;;2.17;1.48;;;11.60;99.90;;;;;;5003255;28;20034;-72
2022/10/25 04:54:46;;;;;;;2.22;1.00;;;11.60;99.90;;;;;;5006942;28;20149;-72
2022/10/25 04:57:11;;;;;;;6.80;1.25;;;11.60;99.90;;;;;;5002841;28;20061;-72
2022/10/25 04:59:37;;;;;;;1.73;0.88;;;11.60;99.90;;;;;;4969715;28;20038;-73
2022/10/25 05:02:04;;;;;;;1.70;1.33;;;11.60;99.90;;;;;;4993608;28;20038;-72
2022/10/25 05:04:30;;;;;;;11.13;1.63;;;11.70;99.90;;;;;;4992894;28;20085;-73
2022/10/25 05:06:55;;;;;;;4.43;0.90;;;11.80;99.90;;;;;;4993577;28;20387;-72
2022/10/25 05:09:21;;;;;;;1.40;0.63;;;11.90;99.90;;;;;;5000127;28;20621;-73
2022/10/25 05:11:47;;;;;;;1.60;0.50;;;11.90;99.90;;;;;;5008759;28;20561;-74
2022/10/25 05:14:13;;;;;;;6.85;0.93;;;11.90;99.90;;;;;;5003904;28;20040;-73
2022/10/25 05:16:39;;;;;;;2.45;1.30;;;12.00;99.90;;;;;;5012286;28;20029;-72
2022/10/25 05:19:05;;;;;;;2.63;0.88;;;12.00;99.90;;;;;;5010818;28;20030;-73
2022/10/25 05:21:31;;;;;;;0.60;0.55;;;12.00;99.90;;;;;;4994152;28;20438;-73
2022/10/25 05:23:58;;;;;;;4.43;0.80;;;11.90;99.90;;;;;;5011560;28;20030;-73
2022/10/25 05:26:24;;;;;;;8.65;1.63;;;11.90;99.90;;;;;;5011932;28;20069;-73
2022/10/25 05:28:53;;;;;;;1.25;1.15;;;11.90;99.90;;;;;;5027379;28;20037;-73
2022/10/25 05:31:30;;;;;;;1.10;0.80;;;11.80;99.90;;;;;;5010870;28;20034;-73
2022/10/25 05:33:59;;;;;;;2.67;1.25;;;11.80;99.90;;;;;;5025424;28;20080;-73
2022/10/25 05:36:31;;;;;;;1.05;0.93;;;11.80;99.90;;;;;;5012399;28;20113;-73
2022/10/25 05:39:01;;;;;;;1.40;0.90;;;11.80;99.90;;;;;;5011966;28;20033;-73
2022/10/25 05:41:27;;;;;;;8.20;1.15;;;11.80;99.90;;;;;;5012001;28;20030;-73
2022/10/25 05:43:53;;;;;;;3.15;0.95;;;11.90;99.90;;;;;;4991276;28;20026;-73
2022/10/25 05:46:21;;;;;;;3.40;0.93;;;11.90;99.90;;;;;;5000262;28;20034;-73
2022/10/25 05:48:48;;;;;;;2.35;1.20;;;12.00;99.90;;;;;;4994933;28;20034;-73
2022/10/25 05:51:25;;;;;;;1.75;1.25;;;12.00;99.90;;;;;;4990825;28;20045;-73
2022/10/25 05:53:54;;;;;;;4.07;1.42;;;12.00;99.90;;;;;;4990156;28;20027;-73
2022/10/25 05:56:23;;;;;;;4.55;0.93;;;12.10;99.90;;;;;;4990507;28;20117;-74
2022/10/25 05:58:49;;;;;;;6.43;1.25;;;12.20;99.90;;;;;;5003628;28;20116;-73
2022/10/25 06:01:17;;;;;;;1.90;1.05;;;12.20;99.90;;;;;;5026038;28;20121;-73
2022/10/25 06:03:46;;;;;;;4.93;1.85;;;12.30;99.90;;;;;;5011012;28;20093;-73
2022/10/25 06:06:12;;;;;;;10.48;3.40;;;12.30;99.90;;;;;;5009965;28;20083;-73
2022/10/25 06:08:38;;;;;;;2.20;0.98;;;12.40;99.90;;;;;;5010859;28;21340;-74
2022/10/25 06:11:10;;;;;;;2.63;1.10;;;12.50;99.90;;;;;;4982906;28;20034;-75
2022/10/25 06:13:37;;;;;;;6.95;1.10;;;12.50;99.90;;;;;;5002310;28;20033;-74
2022/10/25 06:16:05;;;;;;;1.52;1.15;;;12.50;99.90;;;;;;5011635;28;20109;-74
2022/10/25 06:18:33;;;;;;;2.55;1.42;;;12.60;99.90;;;;;;5011751;28;20034;-75
2022/10/25 06:21:08;;;;;;;1.17;0.70;;;12.60;99.90;;;;;;5011950;28;20034;-77
2022/10/25 06:23:35;;;;;;;4.47;1.00;;;12.60;99.90;;;;;;5010640;28;20238;-77
2022/10/25 06:26:04;;;;;;;6.45;1.75;;;12.50;99.90;;;;;;5005034;28;20030;-77
2022/10/25 06:28:31;;;;;;;3.15;1.50;;;12.50;99.90;;;;;;4990302;28;20040;-74
2022/10/25 06:31:05;;;;;;;7.55;1.92;;;12.50;99.90;;;;;;4990324;28;20483;-76
2022/10/25 06:33:32;;;;;;;3.75;1.20;;;12.60;99.90;;;;;;4989538;28;20026;-78
2022/10/25 06:36:00;;;;;;;2.28;1.13;;;12.50;99.90;;;;;;4992753;28;20770;-75
2022/10/25 06:38:27;;;;;;;1.85;1.00;;;12.60;99.90;;;;;;4991143;28;20034;-76
2022/10/25 06:41:00;;;;;;;6.47;1.42;;;12.70;99.90;;;;;;4990452;28;20517;-78
2022/10/25 06:43:28;;;;;;;5.40;1.42;;;12.70;99.90;;;;;;4999609;28;20033;-76
2022/10/25 06:45:54;;;;;;;2.85;1.48;;;12.80;99.90;;;;;;5009925;28;20124;-74
2022/10/25 06:48:20;;;;;;;5.03;1.05;;;12.80;99.90;;;;;;5010749;28;20426;-76
2022/10/25 06:50:46;;;;;;;1.83;1.23;;;12.90;99.90;;;;;;4993294;28;20442;-76
2022/10/25 06:53:12;;;;;;;2.20;0.80;;;12.90;99.90;;;;;;5009919;28;20029;-75
2022/10/25 06:55:38;;;;;;;2.58;0.98;;;12.90;99.90;;;;;;4993237;28;20120;-77
2022/10/25 06:58:04;;;;;;;3.50;1.60;;;12.80;99.90;;;;;;5009409;28;20040;-78
2022/10/25 07:00:29;;;;;;;3.38;1.42;;;12.90;99.90;;;;;;5010972;28;20034;-74
2022/10/25 07:02:57;;;;;;;3.35;1.60;;;13.00;99.90;;;;;;5009904;28;20034;-75
2022/10/25 07:05:24;;;;;;;3.95;1.48;;;13.10;99.90;;;;;;5010812;28;20091;-74
2022/10/25 07:07:50;;;;;;;5.97;1.48;;;13.10;99.90;;;;;;5008853;28;20068;-74
2022/10/25 07:10:16;;;;;;;3.60;1.63;;;13.10;99.90;;;;;;5009047;28;20034;-74
2022/10/25 07:12:42;;;;;;;3.60;1.73;;;13.10;99.90;;;;;;5008238;28;20029;-75
2022/10/25 07:15:08;;;;;;;3.80;1.50;;;13.00;99.90;;;;;;5009581;28;20029;-75
2022/10/25 07:17:34;;;;;;;2.72;1.10;;;13.00;99.90;;;;;;5009267;28;20029;-76
2022/10/25 07:20:00;;;;;;;4.00;1.63;;;13.10;99.90;;;;;;5009343;28;20034;-76
2022/10/25 07:22:27;;;;;;;4.35;1.92;;;13.10;99.90;;;;;;5009503;28;20389;-76
2022/10/25 07:24:53;;;;;;;5.07;1.13;;;13.20;99.90;;;;;;5009102;28;20638;-76
2022/10/25 07:27:19;;;;;;;5.10;1.40;;;13.20;99.90;;;;;;5009158;28;20030;-76
2022/10/25 07:29:45;;;;;;;2.42;1.40;;;13.20;99.90;;;;;;5010167;28;20490;-75
2022/10/25 07:32:10;;;;;;;2.22;1.55;;;13.30;99.90;;;;;;5010280;28;20069;-76
2022/10/25 07:34:36;;;;;;;3.78;0.95;;;13.30;99.90;;;;;;5009995;28;20397;-75
2022/10/25 07:37:02;;;;;;;5.53;2.03;;;13.30;99.90;;;;;;5006249;28;20026;-75
2022/10/25 07:39:28;;;;;;;4.97;1.88;;;13.50;99.90;;;;;;4990486;28;20037;-76
2022/10/25 07:41:53;;;;;;;6.38;2.08;;;13.50;99.90;;;;;;4989722;28;20042;-75
2022/10/25 07:44:20;;;;;;;6.43;1.65;;;13.50;99.90;;;;;;5005668;28;20132;-75
2022/10/25 07:46:46;;;;;;;3.40;1.15;;;13.40;99.90;;;;;;5009533;28;20080;-75
2022/10/25 07:49:13;;;;;;;3.13;1.70;;;13.50;99.90;;;;;;5010415;28;20038;-75
2022/10/25 07:51:38;;;;;;;8.85;1.60;;;13.40;99.90;;;;;;5009936;28;20032;-76
2022/10/25 07:54:04;;;;;;;5.72;1.17;;;13.30;99.90;;;;;;5008382;28;20105;-75
2022/10/25 07:56:30;;;;;;;4.95;2.65;;;13.40;99.90;;;;;;5009921;28;20026;-75
2022/10/25 07:58:56;;;;;;;2.22;1.15;;;13.40;99.90;;;;;;5009739;28;20034;-75
2022/10/25 08:01:25;;;;;;;5.25;2.08;;;13.40;99.90;;;;;;5010268;28;20100;-76
2022/10/25 08:03:54;;;;;;;2.88;1.08;;;13.60;99.90;;;;;;4992306;28;20033;-75
2022/10/25 08:06:23;;;;;;;2.58;1.40;;;13.70;99.90;;;;;;5008737;28;20037;-76
2022/10/25 08:08:49;;;;;;;9.38;3.28;;;14.00;99.90;;;;;;5009795;28;20030;-75
2022/10/25 08:11:15;;;;;;;4.50;0.85;;;14.10;99.90;;;;;;4999159;28;20088;-75
2022/10/25 08:13:41;;;;;;;5.55;1.65;;;14.20;99.90;;;;;;4988131;28;20113;-75
2022/10/25 08:16:07;;;;;;;3.08;1.00;;;14.30;99.90;;;;;;4989150;28;20452;-75
2022/10/25 08:18:33;;;;;;;6.47;1.20;;;14.30;99.90;;;;;;4990156;28;20026;-75
2022/10/25 08:21:03;;;;;;;19.00;1.60;;;14.30;99.90;;;;;;4992873;28;20695;-74
2022/10/25 08:23:30;;;;;;;1.20;0.52;;;14.40;99.90;;;;;;4975930;28;20042;-74
2022/10/25 08:25:55;;;;;;;6.85;1.67;;;14.40;99.90;;;;;;5008861;28;20034;-75
2022/10/25 08:28:21;;;;;;;1.23;0.77;;;14.40;99.90;;;;;;5009527;28;20037;-77
2022/10/25 08:30:47;;;;;;;1.38;0.82;;;14.50;99.90;;;;;;5013399;28;20120;-78
2022/10/25 08:33:13;;;;;;;5.50;1.33;;;14.50;99.90;;;;;;5006635;28;20109;-79
2022/10/25 08:35:39;;;;;;;2.55;0.88;;;14.60;99.90;;;;;;4993828;28;20379;-77
2022/10/25 08:38:05;;;;;;;2.75;1.00;;;14.60;99.90;;;;;;4991881;28;20037;-78
2022/10/25 08:40:58;;;;;;;4.15;1.08;;;14.60;99.90;;;;;;4992649;28;20026;-77
2022/10/25 08:43:57;;;;;;;5.82;1.02;;;14.60;99.90;;;;;;5032382;23;20132;-70
2022/10/25 08:46:36;;;;;;;3.88;1.25;;;14.70;99.90;;;;;;5047378;28;20040;-75
2022/10/25 08:49:20;;;;;;;4.72;1.00;;;14.80;99.90;;;;;;5030858;28;20112;-75
2022/10/25 08:51:49;;;;;;;3.45;1.35;;;14.90;99.90;;;;;;5031342;28;20061;-76
2022/10/25 08:54:31;;;;;;;6.07;0.80;;;14.90;99.90;;;;;;5031538;28;20083;-73
2022/10/25 08:57:23;;;;;;;1.50;0.90;;;14.90;99.90;;;;;;5031374;28;20056;-72
2022/10/25 09:00:06;;;;;;;2.28;0.95;;;15.00;99.90;;;;;;5030874;28;20022;-83
2022/10/25 09:02:53;;;;;;;2.33;1.00;;;15.10;99.90;;;;;;5030766;28;20125;-82
2022/10/25 09:05:42;;;;;;;2.50;1.42;;;15.20;99.90;;;;;;5030837;28;20025;-76
2022/10/25 09:08:56;;;;;;;5.63;1.45;;;15.20;99.90;;;;;;5030853;28;20056;-75
2022/10/25 09:11:51;;;;;;;2.75;0.90;;;15.20;99.90;;;;;;5032102;28;20041;-75
2022/10/25 09:14:31;;;;;;;1.98;1.13;;;15.20;99.90;;;;;;5031338;28;20056;-75
2022/10/25 09:17:18;;;;;;;1.35;0.85;;;15.20;99.90;;;;;;5032564;28;20466;-76
2022/10/25 09:20:34;;;;;;;1.52;0.70;;;15.30;99.90;;;;;;5031027;28;20398;-72
2022/10/25 09:23:23;;;;;;;5.50;1.13;;;15.40;99.90;;;;;;4953864;28;20107;-72
2022/10/25 09:26:05;;;;;;;3.50;1.55;;;15.50;99.90;;;;;;4970619;28;20261;-72
2022/10/25 09:29:10;;;;;;;3.90;1.25;;;15.60;99.90;;;;;;4954875;28;20031;-73
2022/10/25 09:31:43;;;;;;;2.53;1.10;;;15.70;99.90;;;;;;4969400;28;20093;-72
2022/10/25 09:34:10;;;;;;;2.40;0.73;;;15.70;99.90;;;;;;4953854;28;20042;-72
2022/10/25 09:36:47;;;;;;;3.75;1.13;;;15.70;99.90;;;;;;4954691;28;20499;-72
2022/10/25 09:39:43;;;;;;;3.72;1.20;;;15.80;99.90;;;;;;4954332;28;20043;-72
2022/10/25 09:42:21;;;;;;;2.60;0.98;;;15.60;99.90;;;;;;4957684;28;20139;-71
2022/10/25 09:45:29;;;;;;;3.67;1.60;;;15.70;99.90;;;;;;4956199;28;20039;-71
2022/10/25 09:48:28;;;;;;;3.28;0.68;;;15.70;99.90;;;;;;4970686;28;20035;-72
2022/10/25 09:51:31;;;;;;;4.40;1.10;;;15.80;99.90;;;;;;4954603;28;20085;-71
2022/10/25 09:54:03;;;;;;;5.53;0.65;;;15.80;99.90;;;;;;5006047;28;20041;-71
2022/10/25 09:56:29;;;;;;;5.38;0.50;;;16.00;99.90;;;;;;5031457;28;20065;-69
2022/10/25 09:58:55;;;;;;;7.32;1.65;;;16.10;99.90;;;;;;5031257;28;20118;-71
2022/10/25 10:01:28;;;;;;;0.95;0.45;;;16.20;99.90;;;;;;5030240;28;20029;-71
2022/10/25 10:04:03;;;;;;;1.95;0.90;;;16.30;99.90;;;;;;5012998;28;20108;-69
2022/10/25 10:06:36;;;;;;;1.00;0.65;;;16.40;99.90;;;;;;5030290;28;20044;-66
2022/10/25 10:09:10;;;;;;;2.95;1.55;;;16.70;99.90;;;;;;5029855;28;20029;-69
2022/10/25 10:11:37;;;;;;;2.63;0.88;;;16.80;99.90;;;;;;5026163;28;20475;-68
2022/10/25 10:14:40;;;;;;;9.95;0.82;;;16.60;99.90;;;;;;5033514;28;20040;-68
2022/10/25 10:17:12;;;;;;;1.10;0.82;;;16.70;99.90;;;;;;4995059;28;20045;-70
2022/10/25 10:19:39;;;;;;;0.82;0.50;;;16.70;99.90;;;;;;5027641;28;20437;-68
2022/10/25 10:22:14;;;;;;;1.83;0.85;;;16.70;99.90;;;;;;5029732;28;20030;-68
2022/10/25 10:24:42;;;;;;;3.42;0.73;;;16.70;99.90;;;;;;5030236;28;20037;-70
2022/10/25 10:27:26;;;;;;;2.30;0.98;;;16.80;99.90;;;;;;5030814;28;20033;-69
2022/10/25 10:30:08;;;;;;;6.13;0.90;;;16.90;99.90;;;;;;5029720;28;20052;-69
2022/10/25 10:32:36;;;;;;;3.40;1.02;;;17.10;99.90;;;;;;5012147;28;20285;-69
2022/10/25 10:35:24;;;;;;;6.05;0.73;;;16.90;99.90;;;;;;5029462;28;20030;-69
2022/10/25 10:37:50;;;;;;;1.70;0.52;;;16.90;99.90;;;;;;5029639;28;20052;-69
2022/10/25 10:40:15;;;;;;;1.92;1.35;;;16.90;99.90;;;;;;5030493;28;20033;-69
2022/10/25 10:42:41;;;;;;;3.80;1.63;;;17.00;99.90;;;;;;5029330;28;20044;-70
2022/10/25 10:45:07;;;;;;;1.90;0.93;;;16.90;99.90;;;;;;5030246;28;20112;-69
2022/10/25 10:47:47;;;;;;;1.23;0.32;;;17.00;99.90;;;;;;5029566;28;20087;-70
2022/10/25 10:50:21;;;;;;;1.60;0.65;;;17.10;99.90;;;;;;5030522;28;20439;-70
2022/10/25 10:52:53;;;;;;;1.27;0.65;;;17.10;99.90;;;;;;5029905;28;20720;-70
2022/10/25 10:55:54;;;;;;;10.55;1.48;;;17.20;99.90;;;;;;5030115;28;20029;-70
2022/10/25 10:58:25;;;;;;;2.80;0.63;;;17.20;99.90;;;;;;5030590;28;20069;-69
2022/10/25 11:01:27;;;;;;;2.47;1.00;;;17.20;99.90;;;;;;5030023;28;20447;-69
2022/10/25 11:03:56;;;;;;;3.33;0.75;;;17.20;99.90;;;;;;5008762;28;20036;-69
2022/10/25 11:06:32;;;;;;;3.42;0.70;;;17.20;99.90;;;;;;5009054;28;20125;-69
2022/10/25 11:09:23;;;;;;;2.70;0.93;;;17.20;99.90;;;;;;5010764;28;20053;-70
2022/10/25 11:12:10;;;;;;;0.88;0.40;;;17.30;99.90;;;;;;5036910;28;20041;-69
2022/10/25 11:14:36;;;;;;;1.83;0.47;;;17.30;99.90;;;;;;5029821;28;20036;-68
2022/10/25 11:17:18;;;;;;;8.25;1.27;;;17.20;99.90;;;;;;5028950;28;20030;-69
2022/10/25 11:20:20;;;;;;;7.85;1.50;;;17.40;99.90;;;;;;5030084;28;20034;-69
2022/10/25 11:23:29;;;;;;;2.67;0.77;;;17.50;99.90;;;;;;5029353;28;20063;-69
2022/10/25 11:26:31;;;;;;;4.95;0.98;;;17.50;99.90;;;;;;5028665;28;20021;-69
2022/10/25 11:29:19;;;;;;;1.45;0.75;;;17.50;99.90;;;;;;5029657;28;20509;-69
2022/10/25 11:32:29;;;;;;;0.93;0.60;;;17.50;99.90;;;;;;5028953;28;20080;-69
2022/10/25 11:35:19;;;;;;;0.17;0.17;;;17.60;99.90;;;;;;5029923;28;20025;-69
2022/10/25 11:38:14;;;;;;;0.95;0.43;;;17.60;99.90;;;;;;5030267;28;20037;-69
2022/10/25 11:40:50;;;;;;;2.47;0.73;;;17.60;99.90;;;;;;5028862;28;20501;-69
2022/10/25 11:44:05;;;;;;;6.82;1.27;;;17.70;99.90;;;;;;5019054;28;20042;-69
2022/10/25 11:47:02;;;;;;;2.72;0.47;;;17.90;99.90;;;;;;5009966;28;20033;-69
2022/10/25 11:50:23;;;;;;;1.65;0.45;;;18.00;99.90;;;;;;4992640;28;20046;-68
2022/10/25 11:53:04;;;;;;;;;;;18.00;99.90;;;;;;5010000;28;20045;-68
2022/10/25 11:55:49;;;;;;;1.00;0.47;;;17.80;99.90;;;;;;5012799;28;19914;-69
2022/10/25 11:58:55;;;;;;;0.77;0.32;;;17.90;99.90;;;;;;5012334;28;20120;-69
2022/10/25 12:01:30;;;;;;;0.93;0.82;;;17.80;99.90;;;;;;5013743;28;20421;-69
2022/10/25 12:04:52;;;;;;;2.78;0.93;;;17.80;99.90;;;;;;5013049;28;20038;-68
2022/10/25 12:07:38;;;;;;;0.65;0.65;;;17.80;99.90;;;;;;4972296;28;20041;-68
2022/10/25 12:10:31;;;;;;;3.97;1.85;;;17.80;99.90;;;;;;5009267;28;20077;-70
2022/10/25 12:13:23;;;;;;;2.65;0.75;;;17.70;99.90;;;;;;5017649;28;20030;-69
2022/10/25 12:15:52;;;;;;;4.22;0.60;;;17.50;99.90;;;;;;5009226;28;20033;-68
2022/10/25 12:18:30;;;;;;;3.08;0.55;;;17.50;99.90;;;;;;5013634;28;20029;-69
2022/10/25 12:20:57;;;;;;;3.53;1.70;;;17.60;99.90;;;;;;5012340;28;20036;-69
2022/10/25 12:23:26;;;;;;;2.10;0.75;;;17.60;99.90;;;;;;5012781;28;20045;-68
2022/10/25 12:26:05;;;;;;;1.27;0.60;;;17.70;99.90;;;;;;5017917;28;20038;-68
2022/10/25 12:28:45;;;;;;;1.75;0.65;;;17.80;99.90;;;;;;5031700;28;20025;-69
2022/10/25 12:31:27;;;;;;;3.92;1.17;;;17.80;99.90;;;;;;5031691;28;20030;-69
2022/10/25 12:34:34;;;;;;;4.32;1.05;;;17.80;99.90;;;;;;5030852;28;20049;-69
2022/10/25 12:37:07;;;;;;;2.63;1.13;;;17.80;99.90;;;;;;5032959;28;20418;-69
2022/10/25 12:39:41;;;;;;;2.25;0.75;;;17.80;99.90;;;;;;5015502;28;20030;-69
2022/10/25 12:42:18;;;;;;;4.90;1.02;;;18.10;99.90;;;;;;5031433;28;20030;-69
2022/10/25 12:45:26;;;;;;;3.60;0.63;;;18.30;99.90;;;;;;5032732;28;20562;-69
2022/10/25 12:48:08;;;;;;;6.15;0.98;;;18.40;99.90;;;;;;5032637;28;20037;-69
2022/10/25 12:50:45;;;;;;;3.55;1.33;;;18.50;99.90;;;;;;5031427;28;20034;-70
2022/10/25 12:54:08;;;;;;;3.22;0.80;;;18.40;99.90;;;;;;5030655;28;20478;-70
2022/10/25 12:56:57;;;;;;;4.40;1.55;;;18.50;99.90;;;;;;4971012;28;20129;-70
2022/10/25 12:59:53;;;;;;;1.50;0.52;;;18.50;99.90;;;;;;4971364;28;20475;-70
2022/10/25 13:02:41;;;;;;;3.15;1.13;;;18.20;99.90;;;;;;4970225;28;20529;-70
2022/10/25 13:05:38;;;;;;;4.38;0.75;;;18.30;99.90;;;;;;4945060;28;20617;-71
2022/10/25 13:08:06;;;;;;;0.63;0.28;;;18.50;99.90;;;;;;4949933;28;20575;-70
2022/10/25 13:10:40;;;;;;;5.63;1.23;;;18.80;99.90;;;;;;4953206;28;20057;-71
2022/10/25 13:13:20;;;;;;;4.25;1.52;;;19.20;99.90;;;;;;4955979;28;20041;-71
2022/10/25 13:15:59;;;;;;;3.13;0.98;;;20.40;99.90;;;;;;4969247;28;20412;-70
2022/10/25 13:18:37;;;;;;;0.93;0.30;;;20.00;99.90;;;;;;4969282;28;20031;-69
2022/10/25 13:21:24;;;;;;;3.40;0.73;;;20.20;99.90;;;;;;4969863;28;20074;-69
2022/10/25 13:24:01;;;;;;;0.47;0.30;;;20.40;99.90;;;;;;4970409;28;20039;-69
2022/10/25 13:26:30;;;;;;;6.82;1.38;;;21.00;99.90;;;;;;4960186;28;20034;-69
2022/10/25 13:29:39;;;;;;;6.00;0.70;;;20.70;99.90;;;;;;5012310;28;20033;-66
2022/10/25 13:32:13;;;;;;;2.85;0.73;;;21.00;99.90;;;;;;5012114;28;20449;-68